sensor_id;sensor_type;location;lat;lon;timestamp;pressure;altitude;pressure_sealevel;temperature;humidity
32486;BME280;18935;52.236;21.134;2022-07-10T00:00:25;100218.50;;;14.91;87.92
32486;BME280;18935;52.236;21.134;2022-07-10T00:02:50;100220.44;;;14.88;87.96
32486;BME280;18935;52.236;21.134;2022-07-10T00:05:17;100217.72;;;14.89;87.99
32486;BME280;18935;52.236;21.134;2022-07-10T00:07:43;100215.94;;;14.90;87.46
32486;BME280;18935;52.236;21.134;2022-07-10T00:10:09;100209.38;;;14.81;87.99
32486;BME280;18935;52.236;21.134;2022-07-10T00:12:34;100212.56;;;14.88;87.55
32486;BME280;18935;52.236;21.134;2022-07-10T00:14:59;100209.13;;;14.86;88.38
32486;BME280;18935;52.236;21.134;2022-07-10T00:17:25;100212.56;;;14.88;87.72
32486;BME280;18935;52.236;21.134;2022-07-10T00:19:50;100218.19;;;14.97;87.92
32486;BME280;18935;52.236;21.134;2022-07-10T00:22:15;100211.78;;;15.03;86.22
32486;BME280;18935;52.236;21.134;2022-07-10T00:24:41;100206.59;;;15.01;86.60
32486;BME280;18935;52.236;21.134;2022-07-10T00:27:06;100209.47;;;14.97;87.49
32486;BME280;18935;52.236;21.134;2022-07-10T00:29:31;100211.84;;;15.01;86.99
32486;BME280;18935;52.236;21.134;2022-07-10T00:31:57;100198.88;;;14.98;87.32
32486;BME280;18935;52.236;21.134;2022-07-10T00:34:22;100203.91;;;15.03;86.88
32486;BME280;18935;52.236;21.134;2022-07-10T00:36:47;100199.81;;;14.97;87.26
32486;BME280;18935;52.236;21.134;2022-07-10T00:39:12;100195.22;;;15.01;87.23
32486;BME280;18935;52.236;21.134;2022-07-10T00:41:38;100197.25;;;14.96;87.94
32486;BME280;18935;52.236;21.134;2022-07-10T00:44:03;100189.59;;;14.91;88.27
32486;BME280;18935;52.236;21.134;2022-07-10T00:46:30;100190.00;;;14.84;88.37
32486;BME280;18935;52.236;21.134;2022-07-10T00:48:56;100187.53;;;14.81;89.29
32486;BME280;18935;52.236;21.134;2022-07-10T00:51:25;100187.53;;;14.81;89.18
32486;BME280;18935;52.236;21.134;2022-07-10T00:53:51;100184.03;;;14.63;90.80
32486;BME280;18935;52.236;21.134;2022-07-10T00:56:20;100183.91;;;14.66;90.37
32486;BME280;18935;52.236;21.134;2022-07-10T00:58:47;100188.13;;;14.51;91.58
32486;BME280;18935;52.236;21.134;2022-07-10T01:01:12;100181.66;;;14.58;91.75
32486;BME280;18935;52.236;21.134;2022-07-10T01:03:38;100182.25;;;14.63;91.97
32486;BME280;18935;52.236;21.134;2022-07-10T01:06:04;100179.63;;;14.63;91.98
32486;BME280;18935;52.236;21.134;2022-07-10T01:08:29;100177.38;;;14.56;92.08
32486;BME280;18935;52.236;21.134;2022-07-10T01:10:55;100174.56;;;14.60;91.88
32486;BME280;18935;52.236;21.134;2022-07-10T01:13:21;100180.53;;;14.45;92.98
32486;BME280;18935;52.236;21.134;2022-07-10T01:15:47;100179.81;;;14.41;93.34
32486;BME280;18935;52.236;21.134;2022-07-10T01:18:13;100168.06;;;14.50;93.04
32486;BME280;18935;52.236;21.134;2022-07-10T01:20:39;100166.41;;;14.48;93.06
32486;BME280;18935;52.236;21.134;2022-07-10T01:23:04;100169.31;;;14.41;94.17
32486;BME280;18935;52.236;21.134;2022-07-10T01:25:29;100162.69;;;14.34;94.99
32486;BME280;18935;52.236;21.134;2022-07-10T01:27:55;100164.59;;;14.31;95.49
32486;BME280;18935;52.236;21.134;2022-07-10T01:30:20;100156.88;;;14.28;95.95
32486;BME280;18935;52.236;21.134;2022-07-10T01:32:46;100158.28;;;14.35;95.35
32486;BME280;18935;52.236;21.134;2022-07-10T01:35:12;100157.50;;;14.33;95.19
32486;BME280;18935;52.236;21.134;2022-07-10T01:37:39;100150.63;;;14.30;95.87
32486;BME280;18935;52.236;21.134;2022-07-10T01:40:05;100149.16;;;14.25;95.95
32486;BME280;18935;52.236;21.134;2022-07-10T01:42:31;100137.72;;;14.26;96.60
32486;BME280;18935;52.236;21.134;2022-07-10T01:44:56;100143.97;;;14.23;96.47
32486;BME280;18935;52.236;21.134;2022-07-10T01:47:21;100145.13;;;14.17;97.66
32486;BME280;18935;52.236;21.134;2022-07-10T01:49:51;100153.16;;;14.14;97.40
32486;BME280;18935;52.236;21.134;2022-07-10T01:52:17;100147.28;;;14.09;97.57
32486;BME280;18935;52.236;21.134;2022-07-10T01:54:43;100146.34;;;14.10;97.16
32486;BME280;18935;52.236;21.134;2022-07-10T01:57:08;100138.72;;;14.06;97.72
32486;BME280;18935;52.236;21.134;2022-07-10T01:59:33;100139.47;;;14.08;97.81
32486;BME280;18935;52.236;21.134;2022-07-10T02:01:59;100135.25;;;14.05;98.29
32486;BME280;18935;52.236;21.134;2022-07-10T02:04:24;100128.44;;;14.01;98.49
32486;BME280;18935;52.236;21.134;2022-07-10T02:07:19;100133.00;;;13.98;99.26
32486;BME280;18935;52.236;21.134;2022-07-10T02:09:50;100130.84;;;13.87;100.00
32486;BME280;18935;52.236;21.134;2022-07-10T02:12:16;100130.84;;;13.87;100.00
32486;BME280;18935;52.236;21.134;2022-07-10T02:14:41;100131.56;;;13.90;100.00
32486;BME280;18935;52.236;21.134;2022-07-10T02:17:07;100127.75;;;13.98;100.00
32486;BME280;18935;52.236;21.134;2022-07-10T02:19:33;100126.81;;;13.99;100.00
32486;BME280;18935;52.236;21.134;2022-07-10T02:21:59;100127.81;;;13.96;100.00
32486;BME280;18935;52.236;21.134;2022-07-10T02:24:25;100123.47;;;13.95;100.00
32486;BME280;18935;52.236;21.134;2022-07-10T02:26:51;100125.31;;;13.93;100.00
32486;BME280;18935;52.236;21.134;2022-07-10T02:29:16;100126.09;;;13.95;99.68
32486;BME280;18935;52.236;21.134;2022-07-10T02:31:42;100121.41;;;14.02;99.30
32486;BME280;18935;52.236;21.134;2022-07-10T02:34:11;100125.03;;;13.99;98.93
32486;BME280;18935;52.236;21.134;2022-07-10T02:36:37;100126.72;;;14.00;98.99
32486;BME280;18935;52.236;21.134;2022-07-10T02:39:07;100126.03;;;13.97;99.62
32486;BME280;18935;52.236;21.134;2022-07-10T02:41:33;100128.44;;;14.01;99.02
32486;BME280;18935;52.236;21.134;2022-07-10T02:43:58;100108.84;;;14.08;98.10
32486;BME280;18935;52.236;21.134;2022-07-10T02:46:24;100124.88;;;14.02;98.57
32486;BME280;18935;52.236;21.134;2022-07-10T02:48:50;100121.50;;;14.00;98.08
32486;BME280;18935;52.236;21.134;2022-07-10T02:51:15;100114.84;;;13.93;98.83
32486;BME280;18935;52.236;21.134;2022-07-10T02:53:42;100115.69;;;13.94;98.66
32486;BME280;18935;52.236;21.134;2022-07-10T02:56:08;100119.88;;;13.98;98.50
32486;BME280;18935;52.236;21.134;2022-07-10T02:58:34;100123.09;;;14.03;97.99
32486;BME280;18935;52.236;21.134;2022-07-10T03:00:59;100124.13;;;14.00;98.17
32486;BME280;18935;52.236;21.134;2022-07-10T03:03:25;100123.34;;;13.98;98.05
32486;BME280;18935;52.236;21.134;2022-07-10T03:05:50;100121.66;;;13.97;99.51
32486;BME280;18935;52.236;21.134;2022-07-10T03:08:16;100121.66;;;13.97;99.41
32486;BME280;18935;52.236;21.134;2022-07-10T03:10:41;100118.94;;;13.99;99.26
32486;BME280;18935;52.236;21.134;2022-07-10T03:13:06;100114.38;;;14.02;99.02
32486;BME280;18935;52.236;21.134;2022-07-10T03:15:32;100111.16;;;13.97;99.73
32486;BME280;18935;52.236;21.134;2022-07-10T03:17:58;100113.91;;;13.94;99.99
32486;BME280;18935;52.236;21.134;2022-07-10T03:20:23;100113.50;;;14.03;99.72
32486;BME280;18935;52.236;21.134;2022-07-10T03:22:48;100113.34;;;14.06;98.16
32486;BME280;18935;52.236;21.134;2022-07-10T03:25:14;100116.44;;;14.14;97.85
32486;BME280;18935;52.236;21.134;2022-07-10T03:27:39;100114.56;;;14.16;97.30
32486;BME280;18935;52.236;21.134;2022-07-10T03:30:05;100116.81;;;14.24;96.59
32486;BME280;18935;52.236;21.134;2022-07-10T03:32:31;100116.22;;;14.19;95.50
32486;BME280;18935;52.236;21.134;2022-07-10T03:34:57;100116.75;;;14.26;95.60
32486;BME280;18935;52.236;21.134;2022-07-10T03:37:22;100121.56;;;14.35;95.22
32486;BME280;18935;52.236;21.134;2022-07-10T03:39:47;100120.38;;;14.40;95.48
32486;BME280;18935;52.236;21.134;2022-07-10T03:42:13;100116.44;;;14.51;94.43
32486;BME280;18935;52.236;21.134;2022-07-10T03:44:38;100118.81;;;14.55;94.46
32486;BME280;18935;52.236;21.134;2022-07-10T03:47:06;100121.84;;;14.65;92.81
32486;BME280;18935;52.236;21.134;2022-07-10T03:49:32;100121.28;;;14.58;93.04
32486;BME280;18935;52.236;21.134;2022-07-10T03:52:01;100123.75;;;14.61;93.54
32486;BME280;18935;52.236;21.134;2022-07-10T03:54:27;100114.94;;;14.62;93.46
32486;BME280;18935;52.236;21.134;2022-07-10T03:56:52;100117.19;;;14.70;94.09
32486;BME280;18935;52.236;21.134;2022-07-10T03:59:36;100122.47;;;14.86;92.25
32486;BME280;18935;52.236;21.134;2022-07-10T04:02:02;100113.38;;;14.93;92.21
32486;BME280;18935;52.236;21.134;2022-07-10T04:04:27;100110.88;;;15.07;91.28
32486;BME280;18935;52.236;21.134;2022-07-10T04:06:52;100113.38;;;15.26;86.68
32486;BME280;18935;52.236;21.134;2022-07-10T04:09:18;100117.84;;;15.24;85.83
32486;BME280;18935;52.236;21.134;2022-07-10T04:11:43;100120.91;;;15.32;86.43
32486;BME280;18935;52.236;21.134;2022-07-10T04:14:08;100129.09;;;15.59;83.05
32486;BME280;18935;52.236;21.134;2022-07-10T04:16:33;100130.03;;;15.58;84.40
32486;BME280;18935;52.236;21.134;2022-07-10T04:18:59;100127.63;;;15.38;84.53
32486;BME280;18935;52.236;21.134;2022-07-10T04:21:24;100133.81;;;15.37;84.38
32486;BME280;18935;52.236;21.134;2022-07-10T04:23:50;100128.38;;;15.40;85.42
32486;BME280;18935;52.236;21.134;2022-07-10T04:26:15;100122.16;;;15.58;85.36
32486;BME280;18935;52.236;21.134;2022-07-10T04:28:40;100119.09;;;15.50;85.71
32486;BME280;18935;52.236;21.134;2022-07-10T04:31:06;100124.69;;;15.44;85.46
32486;BME280;18935;52.236;21.134;2022-07-10T04:33:31;100126.56;;;15.42;84.50
32486;BME280;18935;52.236;21.134;2022-07-10T04:35:56;100123.47;;;15.34;85.80
32486;BME280;18935;52.236;21.134;2022-07-10T04:38:24;100120.59;;;15.38;84.61
32486;BME280;18935;52.236;21.134;2022-07-10T04:40:50;100118.63;;;15.91;85.23
32486;BME280;18935;52.236;21.134;2022-07-10T04:43:15;100111.81;;;16.18;82.42
32486;BME280;18935;52.236;21.134;2022-07-10T04:45:40;100115.28;;;16.49;79.28
32486;BME280;18935;52.236;21.134;2022-07-10T04:48:06;100117.59;;;16.39;77.74
32486;BME280;18935;52.236;21.134;2022-07-10T04:50:32;100114.41;;;16.34;78.17
32486;BME280;18935;52.236;21.134;2022-07-10T04:52:57;100119.72;;;16.32;78.08
32486;BME280;18935;52.236;21.134;2022-07-10T04:55:22;100107.88;;;16.09;77.93
32486;BME280;18935;52.236;21.134;2022-07-10T04:57:48;100117.94;;;16.03;79.56
32486;BME280;18935;52.236;21.134;2022-07-10T05:00:16;100113.53;;;15.88;79.94
32486;BME280;18935;52.236;21.134;2022-07-10T05:02:42;100114.13;;;15.77;78.55
32486;BME280;18935;52.236;21.134;2022-07-10T05:05:08;100111.34;;;15.80;80.11
32486;BME280;18935;52.236;21.134;2022-07-10T05:07:33;100108.63;;;15.81;78.64
32486;BME280;18935;52.236;21.134;2022-07-10T05:09:58;100113.00;;;15.97;77.85
32486;BME280;18935;52.236;21.134;2022-07-10T05:12:24;100105.66;;;15.88;78.27
32486;BME280;18935;52.236;21.134;2022-07-10T05:14:49;100111.97;;;15.99;76.91
32486;BME280;18935;52.236;21.134;2022-07-10T05:17:14;100105.28;;;15.94;78.83
32486;BME280;18935;52.236;21.134;2022-07-10T05:19:39;100111.06;;;15.84;78.36
32486;BME280;18935;52.236;21.134;2022-07-10T05:22:05;100099.94;;;16.11;76.52
32486;BME280;18935;52.236;21.134;2022-07-10T05:24:30;100101.63;;;16.12;76.08
32486;BME280;18935;52.236;21.134;2022-07-10T05:26:55;100103.00;;;16.03;76.09
32486;BME280;18935;52.236;21.134;2022-07-10T05:29:20;100106.31;;;16.37;76.60
32486;BME280;18935;52.236;21.134;2022-07-10T05:31:46;100105.31;;;16.84;72.76
32486;BME280;18935;52.236;21.134;2022-07-10T05:34:11;100102.97;;;17.22;71.51
32486;BME280;18935;52.236;21.134;2022-07-10T05:36:36;100095.78;;;17.52;70.10
32486;BME280;18935;52.236;21.134;2022-07-10T05:39:02;100094.56;;;17.58;68.94
32486;BME280;18935;52.236;21.134;2022-07-10T05:41:27;100095.44;;;17.44;68.60
32486;BME280;18935;52.236;21.134;2022-07-10T05:43:53;100090.47;;;17.26;68.91
32486;BME280;18935;52.236;21.134;2022-07-10T05:46:18;100083.19;;;17.43;69.43
32486;BME280;18935;52.236;21.134;2022-07-10T05:48:43;100087.72;;;17.27;70.61
32486;BME280;18935;52.236;21.134;2022-07-10T05:51:09;100084.88;;;17.44;69.84
32486;BME280;18935;52.236;21.134;2022-07-10T05:53:34;100093.53;;;17.46;69.42
32486;BME280;18935;52.236;21.134;2022-07-10T05:56:00;100091.66;;;17.48;68.41
32486;BME280;18935;52.236;21.134;2022-07-10T05:58:26;100087.34;;;17.33;70.19
32486;BME280;18935;52.236;21.134;2022-07-10T06:00:51;100085.97;;;17.55;70.65
32486;BME280;18935;52.236;21.134;2022-07-10T06:03:17;100094.25;;;17.77;68.92
32486;BME280;18935;52.236;21.134;2022-07-10T06:05:42;100094.66;;;17.57;68.37
32486;BME280;18935;52.236;21.134;2022-07-10T06:08:07;100089.19;;;17.60;68.27
32486;BME280;18935;52.236;21.134;2022-07-10T06:10:32;100087.19;;;17.77;67.28
32486;BME280;18935;52.236;21.134;2022-07-10T06:12:58;100082.19;;;17.87;68.56
32486;BME280;18935;52.236;21.134;2022-07-10T06:15:23;100082.47;;;18.10;67.41
32486;BME280;18935;52.236;21.134;2022-07-10T06:17:48;100088.69;;;18.09;66.00
32486;BME280;18935;52.236;21.134;2022-07-10T06:20:13;100085.47;;;18.18;66.08
32486;BME280;18935;52.236;21.134;2022-07-10T06:22:39;100087.53;;;18.13;64.40
32486;BME280;18935;52.236;21.134;2022-07-10T06:25:06;100084.75;;;18.01;63.77
32486;BME280;18935;52.236;21.134;2022-07-10T06:27:32;100079.78;;;17.97;62.82
32486;BME280;18935;52.236;21.134;2022-07-10T06:29:58;100084.97;;;17.98;62.69
32486;BME280;18935;52.236;21.134;2022-07-10T06:32:24;100081.81;;;18.06;62.22
32486;BME280;18935;52.236;21.134;2022-07-10T06:34:51;100079.47;;;18.01;63.77
32486;BME280;18935;52.236;21.134;2022-07-10T06:37:16;100080.41;;;18.00;60.55
32486;BME280;18935;52.236;21.134;2022-07-10T06:39:42;100079.59;;;17.73;62.91
32486;BME280;18935;52.236;21.134;2022-07-10T06:42:07;100083.63;;;17.64;64.13
32486;BME280;18935;52.236;21.134;2022-07-10T06:44:33;100079.69;;;17.71;64.31
32486;BME280;18935;52.236;21.134;2022-07-10T06:46:59;100077.69;;;17.61;65.79
32486;BME280;18935;52.236;21.134;2022-07-10T06:49:43;100080.91;;;17.51;64.92
32486;BME280;18935;52.236;21.134;2022-07-10T06:52:09;100082.59;;;17.52;65.41
32486;BME280;18935;52.236;21.134;2022-07-10T06:54:34;100074.06;;;17.35;65.74
32486;BME280;18935;52.236;21.134;2022-07-10T06:57:01;100076.97;;;17.30;65.71
32486;BME280;18935;52.236;21.134;2022-07-10T06:59:26;100080.78;;;17.26;66.83
32486;BME280;18935;52.236;21.134;2022-07-10T07:01:52;100080.84;;;17.39;66.93
32486;BME280;18935;52.236;21.134;2022-07-10T07:04:17;100081.97;;;17.49;67.77
32486;BME280;18935;52.236;21.134;2022-07-10T07:06:43;100084.66;;;17.62;66.64
32486;BME280;18935;52.236;21.134;2022-07-10T07:09:08;100087.25;;;17.90;66.80
32486;BME280;18935;52.236;21.134;2022-07-10T07:11:33;100088.75;;;17.94;65.27
32486;BME280;18935;52.236;21.134;2022-07-10T07:13:58;100086.47;;;18.15;65.41
32486;BME280;18935;52.236;21.134;2022-07-10T07:16:24;100089.28;;;18.39;63.56
32486;BME280;18935;52.236;21.134;2022-07-10T07:19:03;100092.28;;;18.60;62.19
32486;BME280;18935;52.236;21.134;2022-07-10T07:21:30;100085.44;;;18.57;62.45
32486;BME280;18935;52.236;21.134;2022-07-10T07:24:14;100085.56;;;19.07;61.08
32486;BME280;18935;52.236;21.134;2022-07-10T07:26:39;100084.47;;;19.35;60.43
32486;BME280;18935;52.236;21.134;2022-07-10T07:29:05;100085.91;;;20.12;58.08
32486;BME280;18935;52.236;21.134;2022-07-10T07:31:30;100081.56;;;20.70;56.08
32486;BME280;18935;52.236;21.134;2022-07-10T07:33:55;100080.75;;;21.15;55.24
32486;BME280;18935;52.236;21.134;2022-07-10T07:36:20;100092.81;;;21.63;52.74
32486;BME280;18935;52.236;21.134;2022-07-10T07:38:46;100094.63;;;22.38;49.02
32486;BME280;18935;52.236;21.134;2022-07-10T07:41:13;100095.09;;;22.00;50.35
32486;BME280;18935;52.236;21.134;2022-07-10T07:43:38;100080.34;;;22.07;50.77
32486;BME280;18935;52.236;21.134;2022-07-10T07:46:04;100079.59;;;21.84;50.84
32486;BME280;18935;52.236;21.134;2022-07-10T07:48:29;100074.41;;;22.26;49.83
32486;BME280;18935;52.236;21.134;2022-07-10T07:50:54;100082.19;;;22.60;49.07
32486;BME280;18935;52.236;21.134;2022-07-10T07:53:19;100078.78;;;22.48;48.97
32486;BME280;18935;52.236;21.134;2022-07-10T07:55:45;100071.13;;;22.55;48.31
32486;BME280;18935;52.236;21.134;2022-07-10T07:58:10;100079.13;;;22.23;48.29
32486;BME280;18935;52.236;21.134;2022-07-10T08:00:35;100080.81;;;21.80;47.80
32486;BME280;18935;52.236;21.134;2022-07-10T08:03:02;100083.91;;;21.97;50.81
32486;BME280;18935;52.236;21.134;2022-07-10T08:05:28;100079.88;;;21.70;50.02
32486;BME280;18935;52.236;21.134;2022-07-10T08:07:56;100083.78;;;21.10;51.21
32486;BME280;18935;52.236;21.134;2022-07-10T08:10:23;100080.72;;;20.81;53.18
32486;BME280;18935;52.236;21.134;2022-07-10T08:12:49;100070.13;;;20.81;54.70
32486;BME280;18935;52.236;21.134;2022-07-10T08:15:17;100071.94;;;20.92;54.75
32486;BME280;18935;52.236;21.134;2022-07-10T08:17:43;100080.63;;;20.94;51.99
32486;BME280;18935;52.236;21.134;2022-07-10T08:20:12;100077.22;;;20.92;52.86
32486;BME280;18935;52.236;21.134;2022-07-10T08:22:40;100088.56;;;20.71;53.62
32486;BME280;18935;52.236;21.134;2022-07-10T08:25:06;100079.63;;;20.72;53.28
32486;BME280;18935;52.236;21.134;2022-07-10T08:27:35;100076.28;;;20.70;53.89
32486;BME280;18935;52.236;21.134;2022-07-10T08:30:01;100076.66;;;20.88;53.74
32486;BME280;18935;52.236;21.134;2022-07-10T08:32:26;100075.78;;;20.76;53.98
32486;BME280;18935;52.236;21.134;2022-07-10T08:34:52;100080.69;;;20.70;54.24
32486;BME280;18935;52.236;21.134;2022-07-10T08:37:18;100080.19;;;20.53;52.21
32486;BME280;18935;52.236;21.134;2022-07-10T08:39:44;100079.59;;;20.50;54.71
32486;BME280;18935;52.236;21.134;2022-07-10T08:42:10;100085.88;;;20.36;50.93
32486;BME280;18935;52.236;21.134;2022-07-10T08:44:36;100091.09;;;19.90;51.65
32486;BME280;18935;52.236;21.134;2022-07-10T08:47:01;100083.75;;;19.69;53.04
32486;BME280;18935;52.236;21.134;2022-07-10T08:49:28;100081.34;;;19.66;54.12
32486;BME280;18935;52.236;21.134;2022-07-10T08:54:31;100070.81;;;19.78;57.35
32486;BME280;18935;52.236;21.134;2022-07-10T08:57:02;100075.53;;;19.61;59.75
32486;BME280;18935;52.236;21.134;2022-07-10T08:59:28;100078.41;;;19.58;60.28
32486;BME280;18935;52.236;21.134;2022-07-10T09:01:54;100077.22;;;19.62;60.69
32486;BME280;18935;52.236;21.134;2022-07-10T09:04:25;100084.84;;;19.91;60.68
32486;BME280;18935;52.236;21.134;2022-07-10T09:06:51;100080.34;;;20.04;62.32
32486;BME280;18935;52.236;21.134;2022-07-10T09:09:18;100084.78;;;20.27;58.99
32486;BME280;18935;52.236;21.134;2022-07-10T09:11:43;100083.47;;;20.57;59.39
32486;BME280;18935;52.236;21.134;2022-07-10T09:14:10;100080.94;;;20.67;57.93
32486;BME280;18935;52.236;21.134;2022-07-10T09:16:40;100082.41;;;20.36;56.79
32486;BME280;18935;52.236;21.134;2022-07-10T09:19:19;100077.09;;;20.36;56.19
32486;BME280;18935;52.236;21.134;2022-07-10T09:21:47;100075.91;;;21.08;55.00
32486;BME280;18935;52.236;21.134;2022-07-10T09:24:13;100067.38;;;21.50;51.83
32486;BME280;18935;52.236;21.134;2022-07-10T09:26:40;100068.34;;;21.26;54.85
32486;BME280;18935;52.236;21.134;2022-07-10T09:29:10;100061.88;;;21.74;51.28
32486;BME280;18935;52.236;21.134;2022-07-10T09:31:48;100064.28;;;22.62;50.78
32486;BME280;18935;52.236;21.134;2022-07-10T09:34:14;100046.84;;;22.69;46.41
32486;BME280;18935;52.236;21.134;2022-07-10T09:36:39;100058.50;;;22.98;46.65
32486;BME280;18935;52.236;21.134;2022-07-10T09:39:05;100058.13;;;23.53;45.39
32486;BME280;18935;52.236;21.134;2022-07-10T09:41:31;100048.19;;;23.15;46.01
32486;BME280;18935;52.236;21.134;2022-07-10T09:44:03;100044.34;;;21.82;47.50
32486;BME280;18935;52.236;21.134;2022-07-10T09:46:39;100052.66;;;20.90;50.40
32486;BME280;18935;52.236;21.134;2022-07-10T09:49:13;100053.00;;;20.27;50.55
32486;BME280;18935;52.236;21.134;2022-07-10T09:51:40;100051.75;;;20.09;49.64
32486;BME280;18935;52.236;21.134;2022-07-10T09:54:08;100053.16;;;20.02;49.99
32486;BME280;18935;52.236;21.134;2022-07-10T09:56:47;100064.59;;;20.03;48.82
32486;BME280;18935;52.236;21.134;2022-07-10T09:59:14;100052.38;;;20.48;47.83
32486;BME280;18935;52.236;21.134;2022-07-10T10:01:44;100053.56;;;20.44;48.67
32486;BME280;18935;52.236;21.134;2022-07-10T10:04:11;100047.06;;;20.59;48.91
32486;BME280;18935;52.236;21.134;2022-07-10T10:06:38;100046.31;;;20.46;48.81
32486;BME280;18935;52.236;21.134;2022-07-10T10:09:12;100051.53;;;20.59;50.33
32486;BME280;18935;52.236;21.134;2022-07-10T10:11:41;100059.84;;;20.30;49.88
32486;BME280;18935;52.236;21.134;2022-07-10T10:14:09;100056.66;;;20.14;50.56
32486;BME280;18935;52.236;21.134;2022-07-10T10:16:35;100057.03;;;20.09;51.77
32486;BME280;18935;52.236;21.134;2022-07-10T10:19:01;100052.66;;;20.08;49.92
32486;BME280;18935;52.236;21.134;2022-07-10T10:21:46;100055.56;;;20.05;49.66
32486;BME280;18935;52.236;21.134;2022-07-10T10:24:12;100054.28;;;20.22;49.71
32486;BME280;18935;52.236;21.134;2022-07-10T10:26:39;100047.13;;;21.04;47.68
32486;BME280;18935;52.236;21.134;2022-07-10T10:29:05;100056.28;;;20.89;48.87
32486;BME280;18935;52.236;21.134;2022-07-10T10:31:32;100051.09;;;21.09;47.49
32486;BME280;18935;52.236;21.134;2022-07-10T10:33:57;100054.22;;;21.15;47.11
32486;BME280;18935;52.236;21.134;2022-07-10T10:39:02;100052.38;;;20.48;45.79
32486;BME280;18935;52.236;21.134;2022-07-10T10:41:36;100042.16;;;20.31;46.20
32486;BME280;18935;52.236;21.134;2022-07-10T10:49:15;100040.88;;;20.94;46.13
32486;BME280;18935;52.236;21.134;2022-07-10T10:51:56;100034.88;;;20.45;45.29
32486;BME280;18935;52.236;21.134;2022-07-10T10:54:22;100046.00;;;20.26;46.01
32486;BME280;18935;52.236;21.134;2022-07-10T10:57:13;100040.81;;;20.49;47.04
32486;BME280;18935;52.236;21.134;2022-07-10T10:59:53;100039.28;;;20.80;45.13
32486;BME280;18935;52.236;21.134;2022-07-10T11:02:31;100039.16;;;21.26;43.13
32486;BME280;18935;52.236;21.134;2022-07-10T11:08:03;100040.56;;;21.96;40.03
32486;BME280;18935;52.236;21.134;2022-07-10T11:13:04;100041.38;;;22.08;41.69
32486;BME280;18935;52.236;21.134;2022-07-10T11:15:32;100043.72;;;21.90;41.79
32486;BME280;18935;52.236;21.134;2022-07-10T11:20:41;100041.22;;;21.77;44.12
32486;BME280;18935;52.236;21.134;2022-07-10T11:23:35;100045.38;;;22.02;43.96
32486;BME280;18935;52.236;21.134;2022-07-10T11:26:09;100036.88;;;21.87;45.29
32486;BME280;18935;52.236;21.134;2022-07-10T11:28:56;100037.22;;;21.51;45.13
32486;BME280;18935;52.236;21.134;2022-07-10T11:31:23;100035.06;;;21.00;44.63
32486;BME280;18935;52.236;21.134;2022-07-10T11:33:50;100037.97;;;21.30;45.25
32486;BME280;18935;52.236;21.134;2022-07-10T11:36:21;100039.38;;;21.57;44.46
32486;BME280;18935;52.236;21.134;2022-07-10T11:38:57;100037.22;;;21.06;42.98
32486;BME280;18935;52.236;21.134;2022-07-10T11:41:25;100044.84;;;21.76;42.41
32486;BME280;18935;52.236;21.134;2022-07-10T11:43:52;100041.47;;;21.85;39.31
32486;BME280;18935;52.236;21.134;2022-07-10T11:46:20;100036.69;;;21.68;39.80
32486;BME280;18935;52.236;21.134;2022-07-10T11:48:46;100041.63;;;21.73;39.94
32486;BME280;18935;52.236;21.134;2022-07-10T11:51:29;100048.88;;;21.59;41.65
32486;BME280;18935;52.236;21.134;2022-07-10T11:54:03;100046.50;;;21.12;40.48
32486;BME280;18935;52.236;21.134;2022-07-10T11:56:34;100039.88;;;21.06;40.76
32486;BME280;18935;52.236;21.134;2022-07-10T11:59:08;100029.91;;;21.32;42.14
32486;BME280;18935;52.236;21.134;2022-07-10T12:01:35;100026.63;;;21.17;41.35
32486;BME280;18935;52.236;21.134;2022-07-10T12:04:06;100022.53;;;21.02;41.67
32486;BME280;18935;52.236;21.134;2022-07-10T12:06:33;100013.72;;;21.13;42.17
32486;BME280;18935;52.236;21.134;2022-07-10T12:09:10;100022.41;;;21.37;42.89
32486;BME280;18935;52.236;21.134;2022-07-10T12:11:36;100020.50;;;21.71;42.59
32486;BME280;18935;52.236;21.134;2022-07-10T12:16:40;100021.59;;;21.69;42.64
32486;BME280;18935;52.236;21.134;2022-07-10T12:19:08;100014.81;;;21.32;43.87
32486;BME280;18935;52.236;21.134;2022-07-10T12:21:34;100016.50;;;21.11;44.80
32486;BME280;18935;52.236;21.134;2022-07-10T12:24:00;100020.84;;;21.12;46.39
32486;BME280;18935;52.236;21.134;2022-07-10T12:26:38;100016.50;;;21.11;45.58
32486;BME280;18935;52.236;21.134;2022-07-10T12:29:04;100030.72;;;21.44;45.56
32486;BME280;18935;52.236;21.134;2022-07-10T12:31:31;100025.25;;;21.56;44.47
32486;BME280;18935;52.236;21.134;2022-07-10T12:34:02;100027.00;;;21.78;44.77
32486;BME280;18935;52.236;21.134;2022-07-10T12:36:47;100025.69;;;22.16;44.10
32486;BME280;18935;52.236;21.134;2022-07-10T12:39:14;100032.41;;;22.20;42.23
32486;BME280;18935;52.236;21.134;2022-07-10T12:42:00;100045.88;;;22.70;41.51
32486;BME280;18935;52.236;21.134;2022-07-10T12:47:09;100038.19;;;21.50;46.49
32486;BME280;18935;52.236;21.134;2022-07-10T12:52:21;100038.88;;;20.62;47.82
32486;BME280;18935;52.236;21.134;2022-07-10T12:54:47;100049.22;;;20.54;47.02
32486;BME280;18935;52.236;21.134;2022-07-10T12:57:12;100046.91;;;20.14;46.79
32486;BME280;18935;52.236;21.134;2022-07-10T12:59:38;100051.38;;;20.14;47.58
32486;BME280;18935;52.236;21.134;2022-07-10T13:02:18;100051.19;;;19.56;48.47
32486;BME280;18935;52.236;21.134;2022-07-10T13:04:56;100046.00;;;19.67;49.39
32486;BME280;18935;52.236;21.134;2022-07-10T13:07:32;100054.56;;;19.95;49.75